Historical Weather Data
Okotoks
Hwy 2A and Milligan Dr

Date
ET inches
Rain inches
Temperature °C
Humidity
Avg
Wind kmh
Avg
Solar Wm2
Avg
High
Avg
Low
10/01/2020 0.08 0.00 24.4 9.5 -1.3 61 4.8 123
10/02/2020 0.10 0.00 20.5 11.3 3.2 60 7.4 156
10/03/2020 0.10 0.00 21.9 10.4 0.6 65 7.4 156
10/04/2020 0.09 0.00 25.0 12.6 3.5 59 7.9 99
10/05/2020 0.11 0.00 24.7 13.0 1.9 62 7.4 140
10/06/2020 0.08 0.00 19.6 11.7 6.3 59 7.3 104
10/07/2020 0.07 0.00 15.8 8.4 2.4 66 7.3 127
10/08/2020 0.07 0.00 22.7 8.5 1.3 67 8.5 82
10/09/2020 0.05 0.00 14.9 8.4 2.5 70 11.9 64
10/10/2020 0.18 0.00 20.0 14.5 7.3 38 23.6 121
10/11/2020 0.10 0.00 12.4 6.2 -0.9 39 10.7 115
10/12/2020 0.02 0.16 4.4 0.9 -3.2 86 6.6 66
10/13/2020 0.02 0.00 7.3 -1.1 -6.3 89 6.7 62
10/14/2020 0.03 0.07 5.1 -0.2 -4.9 89 4.7 91
10/15/2020 0.05 0.00 7.1 -1.4 -8.1 75 6.3 129
10/16/2020 0.02 0.00 5.1 -1.4 -4.9 89 10.3 62
10/17/2020 0.03 0.01 -2.9 -6.4 -9.9 78 8.5 101
10/18/2020 0.01 0.00 -6.2 -8.4 -9.7 87 11.5 67
10/19/2020 0.01 0.00 -1.0 -6.3 -8.3 93 12.1 75
10/20/2020 0.03 0.13 1.2 -3.8 -9.7 85 9.4 127
10/21/2020 0.02 0.00 -3.0 -5.2 -9.2 88 15.6 65
10/22/2020 0.02 0.01 -4.1 -9.6 -13.4 83 5.9 92
10/23/2020 0.01 0.00 -8.7 -10.9 -14.0 91 7.4 63
10/24/2020 0.02 0.00 -9.6 -14.3 -22.8 84 8.1 103
10/25/2020 0.02 0.00 -4.7 -14.6 -23.0 73 6.2 119
10/26/2020 0.03 0.07 5.6 -2.0 -11.4 67 4.2 86
10/27/2020 0.06 0.00 12.0 6.2 -1.8 55 8.9 81
10/28/2020 0.01 0.06 3.1 1.0 -2.5 93 2.9 51
10/29/2020 0.01 0.00 4.8 0.1 -4.4 89 0.0 42
10/30/2020 0.04 0.00 11.8 5.7 -1.4 64 0.0 100
10/31/2020 0.02 0.00 10.7 1.9 -4.6 67 0.0 95